Tropical Cyclones
[Index]
Main Index Home Page Stock Weather Photos Extreme Storms Discussion Storm News and Storm Chasing Reports Tropical Cyclones / Hurricanes / Typhoons Weather Data and Links Wild Fires / Bushfires Weather Observation Techniques Weather Picture Catalogue Tornado Pictures and Reports Stock Video Footage and DVDs for sale
Season 1991-1992 Tropical Cyclone HETTIE Track Map
Season 1991-1992 Summaries: [BoM-AU] [JTWC-AU] [JTWC-SIO] [JTWC-SPAC] [JTWC-SH]
<<- Previous TC | JTWC 1991-1992 Season | Next TC ->>

click for intensity scale information  Lat/long Grid: Show Hide

 Date Labels: Show Hide

Joint Typhoon Warning Centre Cyclone Data

Name: HETTIE

23 Mar 1992 18:00 UTC to 29 Mar 1992 06:00 UTC

    date/time    lat    long     hPa   cat  kts
1992-03-23 18   10.0   148.1W                 20          
1992-03-24 00   10.4   148.3W                 20          
1992-03-24 06   10.8   148.5W                 20          
1992-03-24 12   11.3   148.7W                 25          
1992-03-24 18   11.8   149.0W                 25          
1992-03-25 00   12.3   149.2W                 25          
1992-03-25 06   13.1   149.3W                 25          
1992-03-25 12   13.9   149.4W                 30          
1992-03-25 18   14.7   149.4W                 30          
1992-03-26 00   15.7   149.1W                 35          
1992-03-26 06   16.9   148.7W           1     40          
1992-03-26 12   18.2   148.1W           1     45          
1992-03-26 18   19.6   147.3W           1     45          
1992-03-27 00   21.0   146.3W           1     50          
1992-03-27 06   22.3   145.2W           1     50          
1992-03-27 12   23.5   143.8W           2     55          
1992-03-27 18   24.5   142.3W           2     55          
1992-03-28 00   25.4   140.6W           2     55          
1992-03-28 06   26.4   138.7W           1     50          
1992-03-28 12   27.4   136.6W           1     50          
1992-03-28 18   28.3   134.1W           1     45          
1992-03-29 00   29.0   131.2W           1     45          
1992-03-29 06   29.3   128.1W           1     40          
Winds are 1-min average.

Tropical cyclone tracks developed by Michael Bath using data from the Joint Typhoon Warning Centre Best Tracks and Google Maps.


[Australian Severe Weather index] [Copyright Notice] [Email Contacts] [Search This Site] [Privacy Policy]
Document: tropical_cyclone_hettie.htm Updated: 18 September 2016